Stations météo

Publicité
Mt. St.Vincent, France (7382): Température de l'air & dewpoint: 15.10.2019 06:00:00 - 21.10.2019 06:00:00 (CEST)Mt. St.Vincent, France (7382): Vitesse du vent & gusts: 15.10.2019 06:00:00 - 21.10.2019 06:00:00 (CEST)Mt. St.Vincent, France (7382): Direction du vent: 15.10.2019 06:00:00 - 21.10.2019 06:00:00 (CEST)Mt. St.Vincent, France (7382): Ensoleillement: 15.10.2019 06:00:00 - 21.10.2019 06:00:00 (CEST)Mt. St.Vincent, France (7382): Quantités de précipitations: 15.10.2019 06:00:00 - 21.10.2019 06:00:00 (CEST)
Date & Time tt [°C] td [°C] ff [km/h] ff [knt] fx [km/h] fx [knt] dd sd [min] rr [mm]
21.10.2019 06:00:00 10,4 9,9 24 13 37 20 W 0 0,0
21.10.2019 05:00:00 10,7 9,9 15 8 26 14 WSW 0 0,0
21.10.2019 04:00:00 10,8 10,5 13 7 26 14 SSW 0 0,0
21.10.2019 03:00:00 11,1 11,1 15 8 34 18 SSE 0 0,4
21.10.2019 02:00:00 11,5 11,5 16 9 26 14 SSE 0 -
21.10.2019 01:00:00 11,6 11,4 13 7 29 16 S 0 0,8
21.10.2019 00:00:00 12,1 12,1 18 10 29 16 SSW 0 0,8
20.10.2019 23:00:00 12,3 12,3 13 7 31 17 SSE 0 0,0
20.10.2019 22:00:00 12,2 12,2 22 12 39 21 SE 0 0,0
20.10.2019 21:00:00 12,1 12,1 21 11 37 20 SE 0 1,0
20.10.2019 20:00:00 12,2 12,2 13 7 35 19 W 0 -
20.10.2019 19:00:00 12,5 12,3 16 9 44 24 WSW 0 5,0
20.10.2019 18:00:00 12,8 12,5 34 18 67 36 W 0 7,0
20.10.2019 17:00:00 14,7 13,1 29 16 65 35 SSW 0 4,0
20.10.2019 16:00:00 15,5 12,4 31 17 55 30 S 0 0,2
20.10.2019 15:00:00 14,9 11,9 35 19 93 50 SSE 0 1,0
20.10.2019 14:00:00 17,9 11,5 31 17 67 36 S 0 -
20.10.2019 13:00:00 18,4 11,2 34 18 67 36 S 0 0,0
20.10.2019 12:00:00 18,3 11,8 35 19 67 36 S 0 0,0
20.10.2019 11:00:00 17,8 11,8 42 23 81 44 S 0 0,0
20.10.2019 10:00:00 17,0 11,9 37 20 70 38 SSE 0 0,0
20.10.2019 09:00:00 16,6 11,5 39 21 80 43 S 0 0,0
20.10.2019 08:00:00 15,9 10,9 37 20 67 36 SSE 0 -
20.10.2019 07:00:00 14,8 10,4 29 16 48 26 SSE 0 0,0
20.10.2019 06:00:00 14,1 10,7 26 14 42 23 SE 0 0,0
20.10.2019 05:00:00 13,6 11,3 22 12 35 19 SE 0 0,0
20.10.2019 04:00:00 13,9 12,3 22 12 35 19 SSE 0 0,0
20.10.2019 03:00:00 13,1 12,8 22 12 34 18 SSE 0 0,0
20.10.2019 02:00:00 11,3 11,3 15 8 35 19 ESE 0 -
20.10.2019 01:00:00 10,3 10,3 15 8 22 12 E 0 0,0
20.10.2019 00:00:00 10,6 10,6 18 10 29 16 E 0 0,0
19.10.2019 23:00:00 10,8 10,8 18 10 28 15 E 0 0,2
19.10.2019 22:00:00 11,1 10,9 16 9 31 17 ENE 0 0,0
19.10.2019 21:00:00 11,3 10,2 5 3 9 5 E 0 0,0
19.10.2019 20:00:00 11,5 11,3 4 2 13 7 E 0 -
19.10.2019 19:00:00 11,5 11,2 8 4 15 8 ESE 0 0,0
19.10.2019 18:00:00 11,5 11,2 2 1 29 16 SW 0 0,4
19.10.2019 17:00:00 12,1 11,6 5 3 15 8 E 0 0,0
19.10.2019 16:00:00 13,3 11,0 8 4 24 13 SW 6 1,0
19.10.2019 15:00:00 12,8 11,5 8 4 28 15 SSW 0 0,4
19.10.2019 14:00:00 13,1 10,3 22 12 44 24 W 0 -
19.10.2019 13:00:00 12,4 9,9 24 13 48 26 WSW 0 0,6
19.10.2019 12:00:00 12,9 9,7 29 16 54 29 WSW 0 0,0
19.10.2019 11:00:00 11,8 9,7 29 16 48 26 SW 0 0,6
19.10.2019 10:00:00 10,9 9,5 24 13 39 21 WSW 0 0,6
19.10.2019 09:00:00 10,2 9,9 24 13 46 25 WSW 0 3,0
19.10.2019 08:00:00 10,7 10,2 26 14 44 24 W 0 -
19.10.2019 07:00:00 13,5 10,1 22 12 31 17 SSW 0 0,0
19.10.2019 06:00:00 13,1 10,5 21 11 37 20 SSW 0 0,0
19.10.2019 05:00:00 13,0 10,5 22 12 35 19 SW 0 0,0
19.10.2019 04:00:00 12,6 9,6 15 8 26 14 WSW 0 0,0
19.10.2019 03:00:00 12,8 9,6 15 8 22 12 SSW 0 0,0
19.10.2019 02:00:00 12,5 9,7 13 7 18 10 SE 0 -
19.10.2019 01:00:00 12,2 8,8 11 6 18 10 SSW 0 0,0
19.10.2019 00:00:00 11,9 9,5 11 6 21 11 SSW 0 0,0
18.10.2019 23:00:00 11,9 9,8 15 8 28 15 SW 0 0,0
18.10.2019 22:00:00 12,0 9,9 16 9 31 17 WSW 0 0,0
18.10.2019 21:00:00 12,2 10,1 18 10 29 16 WSW 0 0,0
18.10.2019 20:00:00 12,0 10,9 21 11 28 15 W 0 -
18.10.2019 19:00:00 12,3 11,5 16 9 31 17 WSW 0 0,0
18.10.2019 18:00:00 12,5 11,2 18 10 29 16 SW 0 0,0
18.10.2019 17:00:00 12,9 10,8 18 10 34 18 SW 0 0,0
18.10.2019 16:00:00 12,9 11,1 18 10 29 16 W 0 0,0
18.10.2019 15:00:00 13,1 11,0 22 12 44 24 WSW 0 0,0
18.10.2019 14:00:00 14,0 10,8 31 17 52 28 W 12 -
18.10.2019 13:00:00 13,3 10,7 31 17 54 29 W 24 0,0
18.10.2019 12:00:00 13,6 11,6 34 18 54 29 W 24 0,0
18.10.2019 11:00:00 11,9 11,6 29 16 44 24 WSW 0 0,2
18.10.2019 10:00:00 11,3 11,0 29 16 42 23 W 0 1,0
18.10.2019 09:00:00 13,5 10,5 22 12 39 21 SW 0 0,0
18.10.2019 08:00:00 13,2 10,4 24 13 46 25 SSW 0 -
18.10.2019 07:00:00 13,6 10,2 28 15 44 24 SW 0 0,0
18.10.2019 06:00:00 12,9 10,8 18 10 31 17 SSW 0 0,0
18.10.2019 05:00:00 13,0 10,9 22 12 37 20 SSW 0 0,0
18.10.2019 04:00:00 12,8 10,3 22 12 31 17 SSW 0 0,0
18.10.2019 03:00:00 13,0 9,6 21 11 28 15 S 0 0,0
18.10.2019 02:00:00 12,6 9,8 16 9 28 15 S 0 -
18.10.2019 01:00:00 12,1 10,2 16 9 31 17 S 0 0,0
18.10.2019 00:00:00 12,5 10,4 21 11 35 19 SSW 0 0,0
17.10.2019 23:00:00 12,2 10,9 22 12 35 19 WSW 0 0,0
17.10.2019 22:00:00 12,5 11,6 24 13 41 22 WSW 0 0,0
17.10.2019 21:00:00 12,8 11,7 22 12 37 20 SW 0 0,0
17.10.2019 20:00:00 13,0 12,1 16 9 31 17 S 0 -
17.10.2019 19:00:00 12,7 11,8 18 10 37 20 SSW 0 0,0
17.10.2019 18:00:00 12,7 12,2 16 9 34 18 SSW 0 0,2
17.10.2019 17:00:00 12,6 12,4 18 10 28 15 S 0 0,2
17.10.2019 16:00:00 12,3 11,8 21 11 37 20 SSW 0 0,6
17.10.2019 15:00:00 11,9 11,3 24 13 42 23 SW 0 2,0
17.10.2019 14:00:00 11,5 11,2 22 12 46 25 WSW 0 -
17.10.2019 13:00:00 12,4 11,8 22 12 37 20 SSW 0 1,0
17.10.2019 12:00:00 12,5 11,6 18 10 31 17 WSW 0 0,8
17.10.2019 11:00:00 12,9 9,5 13 7 22 12 S 0 0,0
17.10.2019 10:00:00 13,3 9,4 9 5 16 9 SE 24 0,0
17.10.2019 09:00:00 12,5 8,8 13 7 26 14 SSW 6 0,0
17.10.2019 08:00:00 12,0 8,5 16 9 26 14 S 0 -
17.10.2019 07:00:00 11,5 9,6 16 9 28 15 SE 0 0,0
17.10.2019 06:00:00 11,8 9,5 18 10 26 14 SE 0 0,0
17.10.2019 05:00:00 11,8 9,5 18 10 28 15 SSE 0 0,0
17.10.2019 04:00:00 11,3 10,0 18 10 26 14 S 0 0,4
17.10.2019 03:00:00 11,7 9,3 13 7 35 19 WSW 0 0,0
17.10.2019 02:00:00 12,7 8,4 22 12 39 21 W 0 -
17.10.2019 01:00:00 13,2 8,1 24 13 39 21 SW 0 0,0
17.10.2019 00:00:00 13,4 7,8 22 12 39 21 WSW 0 0,0
16.10.2019 23:00:00 13,5 7,5 22 12 34 18 WSW 0 0,0
16.10.2019 22:00:00 14,4 7,2 22 12 34 18 SW 0 0,0
16.10.2019 21:00:00 12,9 8,0 13 7 24 13 S 0 0,0
16.10.2019 20:00:00 12,9 8,4 15 8 26 14 SSE 0 -
16.10.2019 19:00:00 13,6 8,8 13 7 21 11 S 0 0,0
16.10.2019 18:00:00 14,9 9,0 13 7 26 14 SSE 54 0,0
16.10.2019 17:00:00 16,8 7,4 18 10 29 16 SSW 60 0,0
16.10.2019 16:00:00 17,6 8,2 13 7 34 18 SW 60 0,0
16.10.2019 15:00:00 16,7 8,4 16 9 37 20 SSW 60 0,0
16.10.2019 14:00:00 16,1 8,6 21 11 42 23 WSW 60 -
16.10.2019 13:00:00 15,8 7,8 15 8 34 18 S 60 0,0
16.10.2019 12:00:00 14,5 7,8 18 10 31 17 S 54 0,0
16.10.2019 11:00:00 12,8 7,2 16 9 28 15 S 54 0,0
16.10.2019 10:00:00 11,1 5,6 18 10 31 17 S 36 0,0
16.10.2019 09:00:00 9,3 4,9 18 10 29 16 SSE 0 0,0
16.10.2019 08:00:00 8,7 4,7 18 10 31 17 S 0 -
16.10.2019 07:00:00 8,7 5,1 15 8 28 15 S 0 0,0
16.10.2019 06:00:00 8,7 5,3 18 10 26 14 S 0 0,0
16.10.2019 05:00:00 8,5 5,6 16 9 28 15 S 0 0,0
16.10.2019 04:00:00 8,8 5,5 16 9 26 14 SSW 0 0,0
16.10.2019 03:00:00 8,5 5,8 16 9 31 17 SW 0 0,0
16.10.2019 02:00:00 8,3 5,9 21 11 39 21 WSW 0 -
16.10.2019 01:00:00 8,5 6,1 22 12 41 22 WSW 0 0,0
16.10.2019 00:00:00 7,9 6,0 29 16 41 22 WSW 0 0,0
15.10.2019 23:00:00 7,7 6,3 28 15 41 22 WSW 0 0,0
15.10.2019 22:00:00 7,9 6,8 26 14 41 22 WSW 0 0,0
15.10.2019 21:00:00 8,0 7,4 31 17 44 24 WSW 0 0,0
15.10.2019 20:00:00 8,4 8,1 24 13 42 23 WSW 0 -
15.10.2019 19:00:00 9,1 8,8 24 13 44 24 WSW 12 0,0
15.10.2019 18:00:00 9,5 9,5 26 14 55 30 W 0 0,2
15.10.2019 17:00:00 9,8 9,8 31 17 59 32 W 0 0,4
15.10.2019 16:00:00 9,6 9,6 35 19 61 33 W 0 0,6
15.10.2019 15:00:00 9,3 9,3 34 18 57 31 W 0 0,2
15.10.2019 14:00:00 9,7 9,7 29 16 54 29 W 0 -
15.10.2019 13:00:00 10,5 10,3 28 15 42 23 W 0 0,0
15.10.2019 12:00:00 10,8 10,8 21 11 37 20 W 0 0,0
15.10.2019 11:00:00 10,4 10,4 16 9 29 16 WSW 0 0,2
15.10.2019 10:00:00 10,3 10,3 9 5 18 10 S 0 2,0
15.10.2019 09:00:00 10,1 10,1 13 7 26 14 SW 0 1,0
15.10.2019 08:00:00 10,2 10,2 11 6 18 10 SE 0 -
15.10.2019 07:00:00 10,4 10,4 8 4 15 8 W 0 6,0
15.10.2019 06:00:00 10,3 10,3 4 2 26 14 N 0 7,0

tt = Température de l'air
td = dewpoint
ff = Vitesse du vent
fx = gusts
dd = Direction du vent
sd = Ensoleillement
rr = Quantités de précipitations

stations d'obs. à proximité